createdAt,value
2023-05-11T00:02:09.561Z,97906.44
2023-05-11T00:04:37.450Z,97901.75
2023-05-11T00:07:05.403Z,97907.22
2023-05-11T00:09:35.418Z,97900.00
2023-05-11T00:12:03.657Z,97900.44
2023-05-11T00:14:32.046Z,97896.19
2023-05-11T00:17:01.139Z,97896.91
2023-05-11T00:19:31.474Z,97896.97
2023-05-11T00:22:02.117Z,97893.81
2023-05-11T00:24:29.764Z,97898.47
2023-05-11T00:26:59.034Z,97891.38
2023-05-11T00:29:26.747Z,97896.91
2023-05-11T00:31:54.739Z,97896.19
2023-05-11T00:34:22.495Z,97888.25
2023-05-11T00:36:50.563Z,97885.53
2023-05-11T00:39:18.357Z,97893.00
2023-05-11T00:41:49.092Z,97889.84
2023-05-11T00:44:18.137Z,97875.19
2023-05-11T00:46:46.404Z,97883.41
2023-05-11T00:49:17.175Z,97879.97
2023-05-11T00:51:45.149Z,97884.66
2023-05-11T00:54:15.488Z,97884.25
2023-05-11T00:56:43.759Z,97881.09
2023-05-11T00:59:11.608Z,97885.00
2023-05-11T01:01:41.327Z,97878.31
2023-05-11T01:04:09.791Z,97886.16
2023-05-11T01:06:46.844Z,97895.03
2023-05-11T01:09:25.498Z,97884.16
2023-05-11T01:12:06.910Z,97883.28
2023-05-11T01:14:40.404Z,97876.22
2023-05-11T01:17:23.647Z,97884.88
2023-05-11T01:19:57.576Z,97882.94
2023-05-11T01:22:37.664Z,97879.25
2023-05-11T01:25:19.483Z,97878.09
2023-05-11T01:28:09.698Z,97887.19
2023-05-11T01:30:44.637Z,97883.59
2023-05-11T01:33:15.452Z,97878.97
2023-05-11T01:35:49.446Z,97876.28
2023-05-11T01:38:22.740Z,97884.00
2023-05-11T01:40:55.566Z,97888.22
2023-05-11T01:43:27.353Z,97881.59
2023-05-11T01:46:01.107Z,97884.63
2023-05-11T01:48:30.989Z,97884.22
2023-05-11T01:51:03.584Z,97888.22
2023-05-11T01:53:36.505Z,97887.81
2023-05-11T01:56:09.585Z,97887.81
2023-05-11T01:58:39.848Z,97891.75
2023-05-11T02:01:13.213Z,97880.41
2023-05-11T02:03:42.932Z,97884.63
2023-05-11T02:06:13.822Z,97881.75
2023-05-11T02:08:42.425Z,97882.91
2023-05-11T02:11:12.332Z,97893.81
2023-05-11T02:13:44.787Z,97889.13
2023-05-11T02:16:16.376Z,97884.41
2023-05-11T02:18:46.044Z,97889.09
2023-05-11T02:21:17.175Z,97884.97
2023-05-11T02:23:46.609Z,97881.16
2023-05-11T02:26:16.689Z,97881.53
2023-05-11T02:31:31.375Z,97885.13
2023-05-11T02:34:05.702Z,97884.25
2023-05-11T02:36:36.616Z,97878.66
2023-05-11T02:39:09.838Z,97880.22
2023-05-11T02:41:43.873Z,97883.34
2023-05-11T02:44:15.998Z,97878.66
2023-05-11T02:46:48.985Z,97876.94
2023-05-11T02:49:19.671Z,97878.66
2023-05-11T02:51:50.136Z,97877.09
2023-05-11T02:54:19.877Z,97884.13
2023-05-11T02:56:47.962Z,97884.13
2023-05-11T02:59:16.647Z,97881.78
2023-05-11T03:01:46.250Z,97881.72
2023-05-11T03:04:16.516Z,97880.97
2023-05-11T03:06:44.257Z,97873.78
2023-05-11T03:09:12.047Z,97871.41
2023-05-11T03:11:40.276Z,97875.72
2023-05-11T03:14:08.453Z,97876.59
2023-05-11T03:16:38.596Z,97873.06
2023-05-11T03:19:10.098Z,97880.13
2023-05-11T03:21:41.374Z,97883.16
2023-05-11T03:24:11.295Z,97883.22
2023-05-11T03:26:41.586Z,97875.81
2023-05-11T03:29:12.121Z,97881.56
2023-05-11T03:31:40.165Z,97877.25
2023-05-11T03:34:09.470Z,97877.25
2023-05-11T03:36:39.491Z,97876.81
2023-05-11T03:39:13.217Z,97875.22
2023-05-11T03:41:41.655Z,97872.84
2023-05-11T03:46:50.497Z,97875.22
2023-05-11T03:49:21.089Z,97874.38
2023-05-11T03:54:33.158Z,97869.63
2023-05-11T03:57:01.600Z,97870.75
2023-05-11T04:02:35.247Z,97866.88
2023-05-11T04:05:08.351Z,97866.44
2023-05-11T04:07:37.621Z,97862.56
2023-05-11T04:10:06.969Z,97863.28
2023-05-11T04:12:34.788Z,97862.84
2023-05-11T04:15:02.892Z,97865.56
2023-05-11T04:17:30.634Z,97854.72
2023-05-11T04:19:59.641Z,97867.09
2023-05-11T04:22:28.975Z,97861.69
2023-05-11T04:24:56.953Z,97866.28
2023-05-11T04:27:24.674Z,97863.88
2023-05-11T04:29:52.714Z,97867.44
2023-05-11T04:32:20.333Z,97872.91
2023-05-11T04:34:48.233Z,97866.28
2023-05-11T04:37:16.162Z,97869.47
2023-05-11T04:39:45.341Z,97872.91
2023-05-11T04:42:14.589Z,97874.94
2023-05-11T04:44:42.283Z,97874.94
2023-05-11T04:47:10.072Z,97873.72
2023-05-11T04:49:39.505Z,97874.16
2023-05-11T04:52:07.500Z,97868.03
2023-05-11T04:54:36.769Z,97868.47
2023-05-11T04:57:06.281Z,97870.84
2023-05-11T05:04:58.454Z,97872.69
2023-05-11T05:07:26.483Z,97866.88
2023-05-11T05:09:54.589Z,97864.94
2023-05-11T05:12:24.118Z,97872.34
2023-05-11T05:14:52.115Z,97876.16
2023-05-11T05:17:20.414Z,97875.81
2023-05-11T05:19:48.522Z,97873.34
2023-05-11T05:22:16.618Z,97879.69
2023-05-11T05:24:45.008Z,97879.53
2023-05-11T05:27:13.260Z,97878.97
2023-05-11T05:29:45.213Z,97877.13
2023-05-11T05:32:13.946Z,97885.16
2023-05-11T05:34:41.712Z,97880.41
2023-05-11T05:37:09.407Z,97889.03
2023-05-11T05:39:37.135Z,97894.50
2023-05-11T05:42:06.326Z,97889.66
2023-05-11T05:44:34.092Z,97890.19
2023-05-11T05:47:03.165Z,97895.22
2023-05-11T05:49:31.167Z,97896.81
2023-05-11T05:51:59.163Z,97896.81
2023-05-11T05:54:26.971Z,97905.31
2023-05-11T05:56:54.928Z,97894.78
2023-05-11T05:59:24.334Z,97903.75
2023-05-11T06:01:53.513Z,97898.28
2023-05-11T06:04:22.640Z,97907.03
2023-05-11T06:06:50.439Z,97898.97
2023-05-11T06:09:18.144Z,97899.25
2023-05-11T06:11:46.947Z,97898.41
2023-05-11T06:14:14.668Z,97907.47
2023-05-11T06:16:42.621Z,97908.06
2023-05-11T06:19:10.515Z,97905.03
2023-05-11T06:21:41.624Z,97905.88
2023-05-11T06:24:10.111Z,97909.84
2023-05-11T06:26:38.095Z,97905.59
2023-05-11T06:29:05.868Z,97903.75
2023-05-11T06:31:33.650Z,97907.75
2023-05-11T06:34:01.364Z,97907.03
2023-05-11T06:36:29.077Z,97907.19
2023-05-11T06:38:58.219Z,97906.91
2023-05-11T06:41:26.268Z,97905.09
2023-05-11T06:43:54.113Z,97901.72
2023-05-11T06:46:22.331Z,97904.31
2023-05-11T06:48:50.424Z,97909.00
2023-05-11T06:51:18.558Z,97899.56
2023-05-11T06:53:46.639Z,97900.34
2023-05-11T06:56:16.940Z,97897.97
2023-05-11T06:58:44.638Z,97898.69
2023-05-11T07:01:12.982Z,97902.44
2023-05-11T07:03:40.757Z,97908.06
2023-05-11T07:06:08.937Z,97905.19
2023-05-11T07:08:36.667Z,97905.59
2023-05-11T07:11:04.930Z,97913.94
2023-05-11T07:13:34.258Z,97902.25
2023-05-11T07:16:02.552Z,97908.47
2023-05-11T07:18:30.515Z,97917.25
2023-05-11T07:20:58.673Z,97917.25
2023-05-11T07:23:26.394Z,97914.50
2023-05-11T07:25:57.707Z,97907.88
2023-05-11T07:28:25.470Z,97910.19
2023-05-11T07:30:54.603Z,97913.28
2023-05-11T07:33:22.324Z,97912.50
2023-05-11T07:35:50.227Z,97912.34
2023-05-11T07:38:18.398Z,97914.00
2023-05-11T07:40:46.244Z,97907.81
2023-05-11T07:43:13.943Z,97917.28
2023-05-11T07:45:41.947Z,97911.78
2023-05-11T07:48:11.029Z,97919.13
2023-05-11T07:50:38.859Z,97922.81
2023-05-11T07:53:06.587Z,97911.81
2023-05-11T07:55:34.397Z,97917.25
2023-05-11T07:58:02.281Z,97914.00
2023-05-11T08:00:30.057Z,97905.28
2023-05-11T08:02:57.878Z,97920.91
2023-05-11T08:05:27.216Z,97917.03
2023-05-11T08:07:54.962Z,97918.50
2023-05-11T08:10:22.992Z,97913.75
2023-05-11T08:12:51.074Z,97920.88
2023-05-11T08:15:19.176Z,97917.09
2023-05-11T08:17:47.217Z,97920.28
2023-05-11T08:20:15.066Z,97911.78
2023-05-11T08:22:45.431Z,97921.25
2023-05-11T08:25:13.739Z,97916.63
2023-05-11T08:27:41.569Z,97916.09
2023-05-11T08:30:11.738Z,97918.81
2023-05-11T08:35:11.586Z,97917.25
2023-05-11T08:37:39.646Z,97920.53
2023-05-11T08:40:13.958Z,97914.19
2023-05-11T08:42:47.581Z,97912.59
2023-05-11T08:45:16.636Z,97917.34
2023-05-11T08:47:46.114Z,97913.88
2023-05-11T08:50:14.085Z,97919.06
2023-05-11T08:52:42.273Z,97912.13
2023-05-11T08:55:12.796Z,97908.56
2023-05-11T08:57:42.426Z,97913.78
2023-05-11T09:00:11.251Z,97909.94
2023-05-11T09:02:39.667Z,97916.16
2023-05-11T09:05:08.731Z,97914.56
2023-05-11T09:07:40.284Z,97923.94
2023-05-11T09:10:10.896Z,97913.69
2023-05-11T09:12:41.611Z,97911.59
2023-05-11T09:15:10.241Z,97912.75
2023-05-11T09:17:37.956Z,97916.16
2023-05-11T09:20:10.653Z,97912.97
2023-05-11T09:22:44.512Z,97909.94
2023-05-11T09:25:14.010Z,97911.41
2023-05-11T09:27:47.594Z,97910.97
2023-05-11T09:32:51.123Z,97921.31
2023-05-11T09:35:27.353Z,97914.69
2023-05-11T09:37:59.563Z,97913.03
2023-05-11T09:43:03.462Z,97911.66
2023-05-11T09:45:39.684Z,97910.22
2023-05-11T09:48:08.394Z,97906.75
2023-05-11T09:50:37.264Z,97911.75
2023-05-11T09:53:05.105Z,97905.75
2023-05-11T09:55:32.888Z,97905.03
2023-05-11T09:58:02.546Z,97905.03
2023-05-11T10:00:30.636Z,97905.75
2023-05-11T10:03:03.341Z,97908.09
2023-05-11T10:05:33.696Z,97906.06
2023-05-11T10:08:04.016Z,97906.50
2023-05-11T10:10:36.644Z,97904.06
2023-05-11T10:13:05.884Z,97907.13
2023-05-11T10:15:36.642Z,97903.97
2023-05-11T10:18:04.790Z,97902.09
2023-05-11T10:20:33.958Z,97895.53
2023-05-11T10:23:01.851Z,97894.94
2023-05-11T10:25:30.202Z,97893.44
2023-05-11T10:27:58.688Z,97887.88
2023-05-11T10:30:28.496Z,97885.75
2023-05-11T10:32:56.687Z,97884.50
2023-05-11T10:35:25.682Z,97887.63
2023-05-11T10:37:54.021Z,97887.63
2023-05-11T10:40:22.541Z,97882.16
2023-05-11T10:43:24.974Z,97876.06
2023-05-11T10:46:05.642Z,97877.69
2023-05-11T10:49:00.908Z,97871.84
2023-05-11T10:51:45.179Z,97877.31
2023-05-11T10:54:34.946Z,97868.47
2023-05-11T10:57:13.543Z,97873.03
2023-05-11T11:00:31.114Z,97864.56
2023-05-11T11:03:10.943Z,97873.00
2023-05-11T11:05:39.446Z,97873.78
2023-05-11T11:08:09.532Z,97869.09
2023-05-11T11:10:39.316Z,97875.56
2023-05-11T11:13:09.184Z,97874.34
2023-05-11T11:16:13.892Z,97878.38
2023-05-11T11:18:45.471Z,97869.78
2023-05-11T11:21:16.066Z,97866.91
2023-05-11T11:23:50.096Z,97866.41
2023-05-11T11:26:39.431Z,97871.16
2023-05-11T11:29:13.306Z,97869.63
2023-05-11T11:31:43.473Z,97870.66
2023-05-11T11:34:36.447Z,97870.94
2023-05-11T11:37:05.761Z,97875.13
2023-05-11T11:39:51.136Z,97870.66
2023-05-11T11:42:24.211Z,97878.03
2023-05-11T11:44:51.921Z,97876.81
2023-05-11T11:47:21.784Z,97877.19
2023-05-11T11:49:53.252Z,97880.69
2023-05-11T11:52:35.063Z,97881.09
2023-05-11T11:55:05.161Z,97879.81
2023-05-11T11:57:49.543Z,97878.66
2023-05-11T12:00:22.797Z,97883.00
2023-05-11T12:02:50.826Z,97881.47
2023-05-11T12:05:23.435Z,97880.03
2023-05-11T12:07:53.519Z,97877.09
2023-05-11T12:10:22.831Z,97893.78
2023-05-11T12:12:54.898Z,97880.84
2023-05-11T12:15:28.183Z,97879.31
2023-05-11T12:17:56.846Z,97879.84
2023-05-11T12:20:26.507Z,97875.88
2023-05-11T12:22:54.249Z,97881.75
2023-05-11T12:25:23.597Z,97882.13
2023-05-11T12:27:55.116Z,97879.97
2023-05-11T12:30:24.492Z,97883.94
2023-05-11T12:35:26.936Z,97889.00
2023-05-11T12:37:55.682Z,97892.94
2023-05-11T12:40:23.911Z,97887.31
2023-05-11T12:42:52.462Z,97890.34
2023-05-11T12:45:21.115Z,97895.69
2023-05-11T12:47:50.801Z,97894.88
2023-05-11T12:50:19.717Z,97900.44
2023-05-11T12:52:49.171Z,97892.56
2023-05-11T12:55:28.430Z,97894.09
2023-05-11T12:58:08.665Z,97894.97
2023-05-11T13:00:36.610Z,97887.47
2023-05-11T13:03:04.935Z,97886.31
2023-05-11T13:05:33.229Z,97880.56
2023-05-11T13:08:04.072Z,97873.91
2023-05-11T13:10:32.079Z,97879.63
2023-05-11T13:12:59.945Z,97876.56
2023-05-11T13:15:28.588Z,97878.03
2023-05-11T13:17:58.745Z,97873.19
2023-05-11T13:20:29.436Z,97875.72
2023-05-11T13:23:09.101Z,97872.88
2023-05-11T13:25:55.545Z,97875.47
2023-05-11T13:28:25.217Z,97866.56
2023-05-11T13:31:00.149Z,97870.03
2023-05-11T13:33:28.186Z,97876.91
2023-05-11T13:35:55.985Z,97867.00
2023-05-11T13:38:25.191Z,97864.63
2023-05-11T13:40:52.937Z,97867.00
2023-05-11T13:43:20.601Z,97865.50
2023-05-11T13:45:48.334Z,97871.03
2023-05-11T13:48:16.628Z,97870.97
2023-05-11T13:50:44.846Z,97870.13
2023-05-11T13:53:13.707Z,97863.09
2023-05-11T13:55:43.112Z,97868.56
2023-05-11T13:58:10.986Z,97866.88
2023-05-11T14:00:40.107Z,97863.66
2023-05-11T14:03:08.283Z,97866.75
2023-05-11T14:05:39.146Z,97860.09
2023-05-11T14:08:07.843Z,97851.81
2023-05-11T14:10:35.622Z,97852.56
2023-05-11T14:13:06.378Z,97860.34
2023-05-11T14:15:34.445Z,97860.34
2023-05-11T14:18:03.574Z,97862.44
2023-05-11T14:20:33.721Z,97861.25
2023-05-11T14:23:01.563Z,97858.97
2023-05-11T14:25:30.720Z,97858.19
2023-05-11T14:27:58.732Z,97856.22
2023-05-11T14:30:28.202Z,97853.47
2023-05-11T14:32:55.956Z,97843.59
2023-05-11T14:35:23.729Z,97845.59
2023-05-11T14:37:51.816Z,97853.41
2023-05-11T14:40:19.707Z,97842.44
2023-05-11T14:42:47.442Z,97854.13
2023-05-11T14:45:15.402Z,97842.44
2023-05-11T14:47:44.718Z,97842.47
2023-05-11T14:50:12.658Z,97850.31
2023-05-11T14:52:40.833Z,97841.00
2023-05-11T14:55:09.828Z,97838.97
2023-05-11T14:57:37.685Z,97831.50
2023-05-11T15:00:06.496Z,97833.84
2023-05-11T15:02:34.239Z,97842.06
2023-05-11T15:05:03.567Z,97837.03
2023-05-11T15:07:31.414Z,97843.69
2023-05-11T15:10:01.611Z,97841.59
2023-05-11T15:12:29.869Z,97844.75
2023-05-11T15:14:57.730Z,97847.88
2023-05-11T15:17:26.106Z,97842.75
2023-05-11T15:19:53.841Z,97842.34
2023-05-11T15:22:23.422Z,97837.59
2023-05-11T15:24:53.332Z,97839.97
2023-05-11T15:27:22.673Z,97846.97
2023-05-11T15:29:50.540Z,97840.75
2023-05-11T15:32:21.141Z,97836.78
2023-05-11T15:34:59.337Z,97845.28
2023-05-11T15:37:31.047Z,97843.16
2023-05-11T15:40:00.055Z,97854.44
2023-05-11T15:42:30.378Z,97857.63
2023-05-11T15:45:00.541Z,97855.25
2023-05-11T15:47:33.089Z,97852.88
2023-05-11T15:50:04.205Z,97863.81
2023-05-11T15:52:46.183Z,97859.69
2023-05-11T15:55:14.499Z,97863.69
2023-05-11T16:03:28.573Z,97867.19
2023-05-11T16:05:59.559Z,97857.03
2023-05-11T16:08:29.163Z,97857.75
2023-05-11T16:10:57.233Z,97866.03
2023-05-11T16:13:25.347Z,97864.19
2023-05-11T16:15:53.379Z,97872.53
2023-05-11T16:18:21.453Z,97863.22
2023-05-11T16:20:50.580Z,97867.22
2023-05-11T16:23:21.091Z,97871.16
2023-05-11T16:25:51.117Z,97862.38
2023-05-11T16:28:21.533Z,97849.13
2023-05-11T16:30:49.993Z,97852.38
2023-05-11T16:33:21.256Z,97842.06
2023-05-11T16:36:05.736Z,97846.66
2023-05-11T16:38:33.582Z,97831.59
2023-05-11T16:41:03.674Z,97829.28
2023-05-11T16:43:34.462Z,97837.84
2023-05-11T16:46:05.050Z,97852.41
2023-05-11T16:48:35.572Z,97842.97
2023-05-11T16:51:05.652Z,97852.97
2023-05-11T16:53:33.840Z,97866.66
2023-05-11T16:56:05.296Z,97868.59
2023-05-11T16:58:34.786Z,97877.84
2023-05-11T17:01:05.961Z,97877.56
2023-05-11T17:03:35.347Z,97888.06
2023-05-11T17:06:10.913Z,97885.31
2023-05-11T17:08:39.751Z,97884.59
2023-05-11T17:11:09.339Z,97891.06
2023-05-11T17:13:37.426Z,97886.31
2023-05-11T17:16:06.094Z,97885.78
2023-05-11T17:18:34.203Z,97885.78
2023-05-11T17:21:02.045Z,97892.38
2023-05-11T17:23:30.678Z,97888.75
2023-05-11T17:25:58.969Z,97884.28
2023-05-11T17:28:28.403Z,97888.59
2023-05-11T17:30:56.203Z,97884.28
2023-05-11T17:33:24.323Z,97891.63
2023-05-11T17:35:52.034Z,97891.50
2023-05-11T17:38:20.033Z,97897.84
2023-05-11T17:40:50.642Z,97899.25
2023-05-11T17:43:18.648Z,97903.78
2023-05-11T17:45:47.841Z,97901.41
2023-05-11T17:48:16.688Z,97913.94
2023-05-11T17:50:44.708Z,97911.44
2023-05-11T17:53:12.482Z,97918.41
2023-05-11T17:55:40.555Z,97909.94
2023-05-11T17:58:08.662Z,97918.63
2023-05-11T18:00:36.919Z,97918.78
2023-05-11T18:03:06.348Z,97927.47
2023-05-11T18:05:47.474Z,97922.09
2023-05-11T18:08:16.482Z,97924.59
2023-05-11T18:10:44.683Z,97921.16
2023-05-11T18:13:13.158Z,97929.78
2023-05-11T18:15:41.038Z,97932.09
2023-05-11T18:18:11.204Z,97935.09
2023-05-11T18:20:39.731Z,97931.13
2023-05-11T18:23:07.502Z,97942.31
2023-05-11T18:25:35.231Z,97933.81
2023-05-11T18:28:04.862Z,97933.75
2023-05-11T18:30:34.403Z,97941.25
2023-05-11T18:33:02.695Z,97942.31
2023-05-11T18:35:32.226Z,97946.13
2023-05-11T18:38:02.273Z,97941.63
2023-05-11T18:41:08.059Z,97943.75
2023-05-11T18:43:35.849Z,97949.84
2023-05-11T18:46:08.380Z,97951.50
2023-05-11T18:48:36.275Z,97956.97
2023-05-11T18:51:05.951Z,97948.78
2023-05-11T18:53:34.389Z,97952.59
2023-05-11T18:56:02.369Z,97953.81
2023-05-11T18:58:31.396Z,97951.44
2023-05-11T19:01:04.009Z,97950.75
2023-05-11T19:03:32.860Z,97962.13
2023-05-11T19:06:03.524Z,97959.56
2023-05-11T19:08:33.199Z,97959.56
2023-05-11T19:11:10.090Z,97970.34
2023-05-11T19:13:38.378Z,97972.94
2023-05-11T19:16:06.580Z,97970.34
2023-05-11T19:18:36.637Z,97976.31
2023-05-11T19:21:08.173Z,97985.88
2023-05-11T19:23:37.549Z,97981.31
2023-05-11T19:26:08.166Z,97976.03
2023-05-11T19:28:35.793Z,97969.81
2023-05-11T19:31:06.472Z,97971.84
2023-05-11T19:33:34.864Z,97974.22
2023-05-11T19:36:07.131Z,97974.22
2023-05-11T19:38:35.908Z,97971.94
2023-05-11T19:41:06.880Z,97974.22
2023-05-11T19:43:37.907Z,97985.88
2023-05-11T19:46:06.190Z,97985.53
2023-05-11T19:48:34.803Z,97986.44
2023-05-11T19:51:06.427Z,97988.72
2023-05-11T19:53:35.099Z,97990.88
2023-05-11T19:56:10.081Z,97991.88
2023-05-11T19:58:39.189Z,97997.44
2023-05-11T20:01:07.227Z,97992.59
2023-05-11T20:03:35.339Z,97997.34
2023-05-11T20:06:13.020Z,97996.38
2023-05-11T20:08:40.839Z,98000.34
2023-05-11T20:11:10.553Z,98005.13
2023-05-11T20:13:38.824Z,98001.50
2023-05-11T20:16:07.180Z,97998.75
2023-05-11T20:18:35.485Z,97997.28
2023-05-11T20:21:06.250Z,97996.47
2023-05-11T20:23:37.470Z,97997.19
2023-05-11T20:26:05.833Z,97997.19
2023-05-11T20:28:39.448Z,97999.47
2023-05-11T20:31:11.534Z,97999.31
2023-05-11T20:36:12.756Z,97995.59
2023-05-11T20:38:42.241Z,97997.91
2023-05-11T20:41:11.322Z,97992.44
2023-05-11T20:43:42.727Z,98007.06
2023-05-11T20:46:11.502Z,97993.59
2023-05-11T20:48:42.819Z,98005.66
2023-05-11T20:51:13.701Z,97995.97
2023-05-11T20:53:44.244Z,97998.44
2023-05-11T20:56:13.819Z,97995.44
2023-05-11T20:58:43.622Z,97991.28
2023-05-11T21:01:13.976Z,97995.13
2023-05-11T21:03:41.881Z,97997.72
2023-05-11T21:06:12.374Z,97998.88
2023-05-11T21:08:40.165Z,97998.44
2023-05-11T21:11:11.881Z,97994.56
2023-05-11T21:13:39.745Z,97996.69
2023-05-11T21:16:12.124Z,97999.31
2023-05-11T21:18:41.275Z,97989.28
2023-05-11T21:21:16.481Z,97988.41
2023-05-11T21:23:45.848Z,97992.44
2023-05-11T21:26:16.862Z,97994.88
2023-05-11T21:28:44.560Z,97988.41
2023-05-11T21:31:14.142Z,97991.56
2023-05-11T21:33:43.532Z,97989.81
2023-05-11T21:36:14.217Z,97986.81
2023-05-11T21:38:44.673Z,97989.28
2023-05-11T21:41:17.981Z,97989.88
2023-05-11T21:43:50.391Z,97988.53
2023-05-11T21:46:20.006Z,97991.56
2023-05-11T21:48:48.083Z,97991.47
2023-05-11T21:51:16.026Z,97986.81
2023-05-11T21:53:44.142Z,97985.91
2023-05-11T21:56:13.048Z,97988.75
2023-05-11T21:58:42.791Z,97988.66
2023-05-11T22:01:14.765Z,97991.94
2023-05-11T22:03:45.030Z,97989.66
2023-05-11T22:06:14.677Z,97985.91
2023-05-11T22:08:47.387Z,97989.81
2023-05-11T22:11:20.686Z,97991.38
2023-05-11T22:13:49.505Z,97995.25
2023-05-11T22:16:18.047Z,97995.25
2023-05-11T22:18:48.421Z,97986.91
2023-05-11T22:21:17.524Z,97991.81
2023-05-11T22:23:48.264Z,97998.28
2023-05-11T22:26:16.477Z,97991.22
2023-05-11T22:28:48.112Z,97996.84
2023-05-11T22:31:20.968Z,97988.91
2023-05-11T22:33:54.021Z,97996.84
2023-05-11T22:36:23.403Z,97999.13
2023-05-11T22:38:54.370Z,98000.28
2023-05-11T22:41:25.246Z,97999.00
2023-05-11T22:43:53.418Z,97997.41
2023-05-11T22:46:22.074Z,97998.81
2023-05-11T22:48:51.220Z,97999.00
2023-05-11T22:51:21.416Z,98002.06
2023-05-11T22:53:49.225Z,98009.38
2023-05-11T22:56:25.346Z,97998.81
2023-05-11T22:58:54.957Z,98002.41
2023-05-11T23:01:24.195Z,97996.16
2023-05-11T23:03:53.790Z,97999.69
2023-05-11T23:06:24.651Z,97992.63
2023-05-11T23:08:52.314Z,97999.94
2023-05-11T23:11:20.061Z,97999.69
2023-05-11T23:13:48.270Z,97994.31
2023-05-11T23:16:15.996Z,98002.16
2023-05-11T23:18:43.888Z,98002.88
2023-05-11T23:21:13.152Z,97999.00
2023-05-11T23:23:42.724Z,97995.81
2023-05-11T23:26:10.533Z,98001.09
2023-05-11T23:28:38.225Z,98001.28
2023-05-11T23:31:05.980Z,97990.00
2023-05-11T23:33:34.701Z,98001.00
2023-05-11T23:36:02.995Z,97993.19
2023-05-11T23:38:32.475Z,97991.59
2023-05-11T23:41:02.246Z,97989.47
2023-05-11T23:43:31.078Z,97993.53
2023-05-11T23:45:58.859Z,97993.44
2023-05-11T23:48:28.040Z,97984.88
2023-05-11T23:50:56.146Z,97990.06
2023-05-11T23:53:23.954Z,97984.69
2023-05-11T23:55:53.224Z,97980.66
2023-05-11T23:58:21.013Z,97983.22
